sensor_id;sensor_type;location;lat;lon;timestamp;P1;durP1;ratioP1;P2;durP2;ratioP2
7316;SDS011;3699;51.462;6.696;2023-10-31T00:00:09;4.87;;;3.17;;
7316;SDS011;3699;51.462;6.696;2023-10-31T00:02:37;4.30;;;2.90;;
7316;SDS011;3699;51.462;6.696;2023-10-31T00:05:04;3.00;;;2.80;;
7316;SDS011;3699;51.462;6.696;2023-10-31T00:07:31;2.63;;;2.43;;
7316;SDS011;3699;51.462;6.696;2023-10-31T00:09:57;3.00;;;2.70;;
7316;SDS011;3699;51.462;6.696;2023-10-31T00:12:24;3.30;;;2.90;;
7316;SDS011;3699;51.462;6.696;2023-10-31T00:14:51;3.20;;;2.90;;
7316;SDS011;3699;51.462;6.696;2023-10-31T00:17:19;3.07;;;2.80;;
7316;SDS011;3699;51.462;6.696;2023-10-31T00:19:46;3.23;;;2.57;;
7316;SDS011;3699;51.462;6.696;2023-10-31T00:22:12;2.67;;;2.47;;
7316;SDS011;3699;51.462;6.696;2023-10-31T00:24:39;2.43;;;2.10;;
7316;SDS011;3699;51.462;6.696;2023-10-31T00:27:06;2.70;;;2.50;;
7316;SDS011;3699;51.462;6.696;2023-10-31T00:29:33;3.83;;;3.50;;
7316;SDS011;3699;51.462;6.696;2023-10-31T00:32:00;4.33;;;3.90;;
7316;SDS011;3699;51.462;6.696;2023-10-31T00:34:28;4.33;;;3.93;;
7316;SDS011;3699;51.462;6.696;2023-10-31T00:36:55;5.47;;;4.83;;
7316;SDS011;3699;51.462;6.696;2023-10-31T00:39:21;4.00;;;3.60;;
7316;SDS011;3699;51.462;6.696;2023-10-31T00:41:48;3.97;;;3.67;;
7316;SDS011;3699;51.462;6.696;2023-10-31T00:44:15;5.03;;;3.13;;
7316;SDS011;3699;51.462;6.696;2023-10-31T00:46:41;2.90;;;2.70;;
7316;SDS011;3699;51.462;6.696;2023-10-31T00:49:08;3.10;;;2.90;;
7316;SDS011;3699;51.462;6.696;2023-10-31T00:51:37;3.47;;;3.17;;
7316;SDS011;3699;51.462;6.696;2023-10-31T00:54:04;4.80;;;3.20;;
7316;SDS011;3699;51.462;6.696;2023-10-31T00:56:31;5.50;;;3.33;;
7316;SDS011;3699;51.462;6.696;2023-10-31T00:58:57;3.97;;;3.30;;
7316;SDS011;3699;51.462;6.696;2023-10-31T01:01:24;3.33;;;3.03;;
7316;SDS011;3699;51.462;6.696;2023-10-31T01:03:51;3.53;;;3.23;;
7316;SDS011;3699;51.462;6.696;2023-10-31T01:06:17;4.87;;;3.20;;
7316;SDS011;3699;51.462;6.696;2023-10-31T01:08:46;3.63;;;3.27;;
7316;SDS011;3699;51.462;6.696;2023-10-31T01:11:12;3.70;;;3.33;;
7316;SDS011;3699;51.462;6.696;2023-10-31T01:13:39;4.37;;;3.60;;
7316;SDS011;3699;51.462;6.696;2023-10-31T01:16:06;4.10;;;3.63;;
7316;SDS011;3699;51.462;6.696;2023-10-31T01:18:33;5.17;;;4.30;;
7316;SDS011;3699;51.462;6.696;2023-10-31T01:21:00;4.63;;;4.13;;
7316;SDS011;3699;51.462;6.696;2023-10-31T01:23:27;13.57;;;5.33;;
7316;SDS011;3699;51.462;6.696;2023-10-31T01:25:55;6.47;;;5.87;;
7316;SDS011;3699;51.462;6.696;2023-10-31T01:28:22;8.07;;;6.10;;
7316;SDS011;3699;51.462;6.696;2023-10-31T01:30:49;8.30;;;5.83;;
7316;SDS011;3699;51.462;6.696;2023-10-31T01:33:15;9.57;;;6.20;;
7316;SDS011;3699;51.462;6.696;2023-10-31T01:35:42;9.13;;;6.50;;
7316;SDS011;3699;51.462;6.696;2023-10-31T01:38:09;8.53;;;6.47;;
7316;SDS011;3699;51.462;6.696;2023-10-31T01:40:36;13.03;;;7.23;;
7316;SDS011;3699;51.462;6.696;2023-10-31T01:43:04;10.50;;;8.60;;
7316;SDS011;3699;51.462;6.696;2023-10-31T01:45:31;9.50;;;8.00;;
7316;SDS011;3699;51.462;6.696;2023-10-31T01:47:58;14.07;;;9.70;;
7316;SDS011;3699;51.462;6.696;2023-10-31T01:50:25;12.77;;;9.00;;
7316;SDS011;3699;51.462;6.696;2023-10-31T01:52:53;11.80;;;9.20;;
7316;SDS011;3699;51.462;6.696;2023-10-31T01:55:20;11.77;;;9.10;;
7316;SDS011;3699;51.462;6.696;2023-10-31T01:57:52;17.73;;;9.00;;
7316;SDS011;3699;51.462;6.696;2023-10-31T02:00:21;10.33;;;8.83;;
7316;SDS011;3699;51.462;6.696;2023-10-31T02:02:48;12.67;;;9.23;;
7316;SDS011;3699;51.462;6.696;2023-10-31T02:05:19;11.13;;;9.07;;
7316;SDS011;3699;51.462;6.696;2023-10-31T02:07:46;11.50;;;8.80;;
7316;SDS011;3699;51.462;6.696;2023-10-31T02:10:13;9.77;;;8.13;;
7316;SDS011;3699;51.462;6.696;2023-10-31T02:12:39;14.17;;;8.93;;
7316;SDS011;3699;51.462;6.696;2023-10-31T02:15:07;12.50;;;8.60;;
7316;SDS011;3699;51.462;6.696;2023-10-31T02:17:36;13.97;;;8.13;;
7316;SDS011;3699;51.462;6.696;2023-10-31T02:20:03;11.10;;;8.20;;
7316;SDS011;3699;51.462;6.696;2023-10-31T02:22:32;11.63;;;7.83;;
7316;SDS011;3699;51.462;6.696;2023-10-31T02:24:58;9.80;;;7.67;;
7316;SDS011;3699;51.462;6.696;2023-10-31T02:27:25;14.40;;;8.17;;
7316;SDS011;3699;51.462;6.696;2023-10-31T02:29:52;13.23;;;9.07;;
7316;SDS011;3699;51.462;6.696;2023-10-31T02:32:19;13.13;;;9.67;;
7316;SDS011;3699;51.462;6.696;2023-10-31T02:34:46;15.47;;;9.23;;
7316;SDS011;3699;51.462;6.696;2023-10-31T02:37:12;14.03;;;9.43;;
7316;SDS011;3699;51.462;6.696;2023-10-31T02:39:40;16.30;;;10.77;;
7316;SDS011;3699;51.462;6.696;2023-10-31T02:42:08;20.20;;;10.93;;
7316;SDS011;3699;51.462;6.696;2023-10-31T02:44:34;18.57;;;10.80;;
7316;SDS011;3699;51.462;6.696;2023-10-31T02:47:01;16.77;;;10.33;;
7316;SDS011;3699;51.462;6.696;2023-10-31T02:49:28;18.17;;;11.03;;
7316;SDS011;3699;51.462;6.696;2023-10-31T02:51:55;17.53;;;11.23;;
7316;SDS011;3699;51.462;6.696;2023-10-31T02:54:22;18.60;;;12.03;;
7316;SDS011;3699;51.462;6.696;2023-10-31T02:56:50;17.53;;;11.53;;
7316;SDS011;3699;51.462;6.696;2023-10-31T02:59:17;19.77;;;11.27;;
7316;SDS011;3699;51.462;6.696;2023-10-31T03:01:44;15.97;;;11.47;;
7316;SDS011;3699;51.462;6.696;2023-10-31T03:04:10;18.57;;;11.53;;
7316;SDS011;3699;51.462;6.696;2023-10-31T03:06:37;20.03;;;11.07;;
7316;SDS011;3699;51.462;6.696;2023-10-31T03:09:04;17.00;;;10.53;;
7316;SDS011;3699;51.462;6.696;2023-10-31T03:11:32;18.27;;;11.33;;
7316;SDS011;3699;51.462;6.696;2023-10-31T03:14:00;16.03;;;11.33;;
7316;SDS011;3699;51.462;6.696;2023-10-31T03:16:27;17.87;;;11.03;;
7316;SDS011;3699;51.462;6.696;2023-10-31T03:18:54;22.73;;;10.57;;
7316;SDS011;3699;51.462;6.696;2023-10-31T03:21:21;16.70;;;10.20;;
7316;SDS011;3699;51.462;6.696;2023-10-31T03:23:49;14.53;;;9.87;;
7316;SDS011;3699;51.462;6.696;2023-10-31T03:26:18;13.93;;;9.63;;
7316;SDS011;3699;51.462;6.696;2023-10-31T03:28:45;16.00;;;8.73;;
7316;SDS011;3699;51.462;6.696;2023-10-31T03:31:13;11.60;;;7.53;;
7316;SDS011;3699;51.462;6.696;2023-10-31T03:33:41;11.27;;;8.50;;
7316;SDS011;3699;51.462;6.696;2023-10-31T03:36:08;14.50;;;7.97;;
7316;SDS011;3699;51.462;6.696;2023-10-31T03:38:35;12.53;;;7.27;;
7316;SDS011;3699;51.462;6.696;2023-10-31T03:41:02;11.97;;;8.00;;
7316;SDS011;3699;51.462;6.696;2023-10-31T03:43:29;13.77;;;8.30;;
7316;SDS011;3699;51.462;6.696;2023-10-31T03:45:56;11.10;;;7.30;;
7316;SDS011;3699;51.462;6.696;2023-10-31T03:48:24;10.33;;;7.30;;
7316;SDS011;3699;51.462;6.696;2023-10-31T03:50:51;9.93;;;7.20;;
7316;SDS011;3699;51.462;6.696;2023-10-31T03:53:18;10.93;;;6.80;;
7316;SDS011;3699;51.462;6.696;2023-10-31T03:55:44;14.80;;;7.47;;
7316;SDS011;3699;51.462;6.696;2023-10-31T03:58:11;13.90;;;8.10;;
7316;SDS011;3699;51.462;6.696;2023-10-31T04:00:38;11.93;;;7.50;;
7316;SDS011;3699;51.462;6.696;2023-10-31T04:03:06;14.20;;;8.20;;
7316;SDS011;3699;51.462;6.696;2023-10-31T04:05:34;11.40;;;7.53;;
7316;SDS011;3699;51.462;6.696;2023-10-31T04:08:01;15.03;;;8.53;;
7316;SDS011;3699;51.462;6.696;2023-10-31T04:10:28;14.97;;;8.83;;
7316;SDS011;3699;51.462;6.696;2023-10-31T04:12:55;14.90;;;8.60;;
7316;SDS011;3699;51.462;6.696;2023-10-31T04:15:21;11.67;;;8.10;;
7316;SDS011;3699;51.462;6.696;2023-10-31T04:17:48;13.13;;;8.50;;
7316;SDS011;3699;51.462;6.696;2023-10-31T04:20:15;13.43;;;9.00;;
7316;SDS011;3699;51.462;6.696;2023-10-31T04:22:43;12.30;;;8.73;;
7316;SDS011;3699;51.462;6.696;2023-10-31T04:25:10;13.77;;;8.57;;
7316;SDS011;3699;51.462;6.696;2023-10-31T04:27:36;13.67;;;8.10;;
7316;SDS011;3699;51.462;6.696;2023-10-31T04:30:03;14.80;;;8.97;;
7316;SDS011;3699;51.462;6.696;2023-10-31T04:32:31;12.30;;;8.37;;
7316;SDS011;3699;51.462;6.696;2023-10-31T04:34:58;14.20;;;9.13;;
7316;SDS011;3699;51.462;6.696;2023-10-31T04:37:25;12.43;;;8.43;;
7316;SDS011;3699;51.462;6.696;2023-10-31T04:39:53;11.67;;;7.87;;
7316;SDS011;3699;51.462;6.696;2023-10-31T04:42:20;13.77;;;8.53;;
7316;SDS011;3699;51.462;6.696;2023-10-31T04:44:47;13.73;;;8.90;;
7316;SDS011;3699;51.462;6.696;2023-10-31T04:47:14;14.60;;;8.73;;
7316;SDS011;3699;51.462;6.696;2023-10-31T04:49:41;13.03;;;8.13;;
7316;SDS011;3699;51.462;6.696;2023-10-31T04:52:08;13.60;;;9.17;;
7316;SDS011;3699;51.462;6.696;2023-10-31T04:54:35;12.37;;;8.13;;
7316;SDS011;3699;51.462;6.696;2023-10-31T04:57:03;14.97;;;9.10;;
7316;SDS011;3699;51.462;6.696;2023-10-31T04:59:30;13.87;;;8.87;;
7316;SDS011;3699;51.462;6.696;2023-10-31T05:01:57;14.47;;;8.83;;
7316;SDS011;3699;51.462;6.696;2023-10-31T05:04:24;14.47;;;8.63;;
7316;SDS011;3699;51.462;6.696;2023-10-31T05:06:51;18.33;;;10.70;;
7316;SDS011;3699;51.462;6.696;2023-10-31T05:09:18;15.33;;;9.50;;
7316;SDS011;3699;51.462;6.696;2023-10-31T05:11:46;13.27;;;9.27;;
7316;SDS011;3699;51.462;6.696;2023-10-31T05:14:14;14.40;;;9.97;;
7316;SDS011;3699;51.462;6.696;2023-10-31T05:16:41;14.77;;;9.83;;
7316;SDS011;3699;51.462;6.696;2023-10-31T05:19:08;15.00;;;9.97;;
7316;SDS011;3699;51.462;6.696;2023-10-31T05:21:35;17.80;;;10.93;;
7316;SDS011;3699;51.462;6.696;2023-10-31T05:24:02;16.90;;;11.00;;
7316;SDS011;3699;51.462;6.696;2023-10-31T05:26:29;14.37;;;10.37;;
7316;SDS011;3699;51.462;6.696;2023-10-31T05:28:55;15.83;;;10.90;;
7316;SDS011;3699;51.462;6.696;2023-10-31T05:31:24;18.67;;;11.60;;
7316;SDS011;3699;51.462;6.696;2023-10-31T05:33:51;18.33;;;11.13;;
7316;SDS011;3699;51.462;6.696;2023-10-31T05:36:18;18.40;;;12.43;;
7316;SDS011;3699;51.462;6.696;2023-10-31T05:38:45;22.67;;;12.70;;
7316;SDS011;3699;51.462;6.696;2023-10-31T05:41:13;19.63;;;13.07;;
7316;SDS011;3699;51.462;6.696;2023-10-31T05:43:40;18.73;;;11.97;;
7316;SDS011;3699;51.462;6.696;2023-10-31T05:46:08;19.63;;;12.87;;
7316;SDS011;3699;51.462;6.696;2023-10-31T05:48:39;20.57;;;13.30;;
7316;SDS011;3699;51.462;6.696;2023-10-31T05:51:10;19.10;;;12.73;;
7316;SDS011;3699;51.462;6.696;2023-10-31T05:53:38;21.50;;;12.87;;
7316;SDS011;3699;51.462;6.696;2023-10-31T05:56:06;17.97;;;12.10;;
7316;SDS011;3699;51.462;6.696;2023-10-31T05:58:34;18.23;;;11.70;;
7316;SDS011;3699;51.462;6.696;2023-10-31T06:01:01;18.63;;;12.07;;
7316;SDS011;3699;51.462;6.696;2023-10-31T06:03:28;19.13;;;12.03;;
7316;SDS011;3699;51.462;6.696;2023-10-31T06:05:56;19.90;;;12.03;;
7316;SDS011;3699;51.462;6.696;2023-10-31T06:08:23;21.57;;;12.27;;
7316;SDS011;3699;51.462;6.696;2023-10-31T06:10:53;16.70;;;10.97;;
7316;SDS011;3699;51.462;6.696;2023-10-31T06:13:19;18.73;;;12.47;;
7316;SDS011;3699;51.462;6.696;2023-10-31T06:15:46;17.00;;;11.37;;
7316;SDS011;3699;51.462;6.696;2023-10-31T06:18:13;18.07;;;11.27;;
7316;SDS011;3699;51.462;6.696;2023-10-31T06:20:40;15.70;;;11.40;;
7316;SDS011;3699;51.462;6.696;2023-10-31T06:23:08;17.90;;;11.10;;
7316;SDS011;3699;51.462;6.696;2023-10-31T06:25:35;14.03;;;10.63;;
7316;SDS011;3699;51.462;6.696;2023-10-31T06:28:02;15.93;;;10.50;;
7316;SDS011;3699;51.462;6.696;2023-10-31T06:30:29;15.03;;;10.17;;
7316;SDS011;3699;51.462;6.696;2023-10-31T06:32:56;14.37;;;10.00;;
7316;SDS011;3699;51.462;6.696;2023-10-31T06:35:22;14.47;;;10.43;;
7316;SDS011;3699;51.462;6.696;2023-10-31T06:37:50;14.07;;;10.10;;
7316;SDS011;3699;51.462;6.696;2023-10-31T06:40:19;14.50;;;10.23;;
7316;SDS011;3699;51.462;6.696;2023-10-31T06:42:46;15.73;;;10.87;;
7316;SDS011;3699;51.462;6.696;2023-10-31T06:45:12;14.03;;;10.47;;
7316;SDS011;3699;51.462;6.696;2023-10-31T06:47:39;16.00;;;10.37;;
7316;SDS011;3699;51.462;6.696;2023-10-31T06:50:07;12.87;;;9.70;;
7316;SDS011;3699;51.462;6.696;2023-10-31T06:52:35;13.90;;;9.57;;
7316;SDS011;3699;51.462;6.696;2023-10-31T06:55:01;13.77;;;9.73;;
7316;SDS011;3699;51.462;6.696;2023-10-31T06:57:30;11.60;;;8.67;;
7316;SDS011;3699;51.462;6.696;2023-10-31T06:59:56;9.90;;;7.37;;
7316;SDS011;3699;51.462;6.696;2023-10-31T07:02:23;11.27;;;8.07;;
7316;SDS011;3699;51.462;6.696;2023-10-31T07:04:50;12.83;;;8.20;;
7316;SDS011;3699;51.462;6.696;2023-10-31T07:07:17;11.70;;;8.90;;
7316;SDS011;3699;51.462;6.696;2023-10-31T07:09:44;11.87;;;8.77;;
7316;SDS011;3699;51.462;6.696;2023-10-31T07:12:11;15.37;;;10.13;;
7316;SDS011;3699;51.462;6.696;2023-10-31T07:14:39;13.27;;;9.97;;
7316;SDS011;3699;51.462;6.696;2023-10-31T07:17:06;13.80;;;10.07;;
7316;SDS011;3699;51.462;6.696;2023-10-31T07:19:32;13.17;;;9.43;;
7316;SDS011;3699;51.462;6.696;2023-10-31T07:21:59;15.13;;;10.57;;
7316;SDS011;3699;51.462;6.696;2023-10-31T07:24:26;17.47;;;10.57;;
7316;SDS011;3699;51.462;6.696;2023-10-31T07:26:53;15.13;;;10.23;;
7316;SDS011;3699;51.462;6.696;2023-10-31T07:29:20;16.50;;;11.43;;
7316;SDS011;3699;51.462;6.696;2023-10-31T07:31:48;14.70;;;11.40;;
7316;SDS011;3699;51.462;6.696;2023-10-31T07:34:15;16.17;;;11.83;;
7316;SDS011;3699;51.462;6.696;2023-10-31T07:36:42;17.07;;;11.27;;
7316;SDS011;3699;51.462;6.696;2023-10-31T07:39:08;14.00;;;11.20;;
7316;SDS011;3699;51.462;6.696;2023-10-31T07:41:37;17.00;;;12.17;;
7316;SDS011;3699;51.462;6.696;2023-10-31T07:44:04;16.13;;;11.93;;
7316;SDS011;3699;51.462;6.696;2023-10-31T07:46:32;15.73;;;12.50;;
7316;SDS011;3699;51.462;6.696;2023-10-31T07:49:00;15.80;;;12.07;;
7316;SDS011;3699;51.462;6.696;2023-10-31T07:51:26;21.73;;;12.90;;
7316;SDS011;3699;51.462;6.696;2023-10-31T07:53:53;17.47;;;11.83;;
7316;SDS011;3699;51.462;6.696;2023-10-31T07:56:20;16.33;;;11.77;;
7316;SDS011;3699;51.462;6.696;2023-10-31T07:58:48;13.90;;;10.53;;
7316;SDS011;3699;51.462;6.696;2023-10-31T08:01:16;14.40;;;11.47;;
7316;SDS011;3699;51.462;6.696;2023-10-31T08:03:43;19.20;;;11.97;;
7316;SDS011;3699;51.462;6.696;2023-10-31T08:06:11;14.10;;;11.30;;
7316;SDS011;3699;51.462;6.696;2023-10-31T08:08:38;15.27;;;11.17;;
7316;SDS011;3699;51.462;6.696;2023-10-31T08:11:07;12.63;;;10.70;;
7316;SDS011;3699;51.462;6.696;2023-10-31T08:13:34;15.90;;;11.20;;
7316;SDS011;3699;51.462;6.696;2023-10-31T08:16:03;14.67;;;11.10;;
7316;SDS011;3699;51.462;6.696;2023-10-31T08:18:33;18.33;;;12.30;;
7316;SDS011;3699;51.462;6.696;2023-10-31T08:20:59;15.60;;;11.77;;
7316;SDS011;3699;51.462;6.696;2023-10-31T08:23:28;14.83;;;10.60;;
7316;SDS011;3699;51.462;6.696;2023-10-31T08:25:57;13.87;;;11.43;;
7316;SDS011;3699;51.462;6.696;2023-10-31T08:28:24;13.67;;;10.87;;
7316;SDS011;3699;51.462;6.696;2023-10-31T08:30:51;19.53;;;9.83;;
7316;SDS011;3699;51.462;6.696;2023-10-31T08:33:18;12.77;;;9.77;;
7316;SDS011;3699;51.462;6.696;2023-10-31T08:35:46;13.37;;;9.77;;
7316;SDS011;3699;51.462;6.696;2023-10-31T08:38:13;11.47;;;8.87;;
7316;SDS011;3699;51.462;6.696;2023-10-31T08:40:43;11.27;;;9.13;;
7316;SDS011;3699;51.462;6.696;2023-10-31T08:43:10;14.97;;;9.17;;
7316;SDS011;3699;51.462;6.696;2023-10-31T08:45:37;10.37;;;8.50;;
7316;SDS011;3699;51.462;6.696;2023-10-31T08:48:04;9.67;;;8.17;;
7316;SDS011;3699;51.462;6.696;2023-10-31T08:50:31;9.20;;;8.17;;
7316;SDS011;3699;51.462;6.696;2023-10-31T08:52:57;10.80;;;7.97;;
7316;SDS011;3699;51.462;6.696;2023-10-31T08:55:24;14.20;;;7.70;;
7316;SDS011;3699;51.462;6.696;2023-10-31T08:57:52;8.93;;;7.27;;
7316;SDS011;3699;51.462;6.696;2023-10-31T09:00:19;14.53;;;8.47;;
7316;SDS011;3699;51.462;6.696;2023-10-31T09:02:46;9.63;;;8.10;;
7316;SDS011;3699;51.462;6.696;2023-10-31T09:05:13;10.73;;;7.40;;
7316;SDS011;3699;51.462;6.696;2023-10-31T09:07:39;8.63;;;7.53;;
7316;SDS011;3699;51.462;6.696;2023-10-31T09:10:07;11.57;;;6.33;;
7316;SDS011;3699;51.462;6.696;2023-10-31T09:12:34;7.37;;;6.37;;
7316;SDS011;3699;51.462;6.696;2023-10-31T09:15:02;9.27;;;7.03;;
7316;SDS011;3699;51.462;6.696;2023-10-31T09:17:29;9.77;;;7.23;;
7316;SDS011;3699;51.462;6.696;2023-10-31T09:19:56;8.07;;;6.07;;
7316;SDS011;3699;51.462;6.696;2023-10-31T09:22:26;7.17;;;6.47;;
7316;SDS011;3699;51.462;6.696;2023-10-31T09:24:52;8.90;;;6.40;;
7316;SDS011;3699;51.462;6.696;2023-10-31T09:27:19;9.27;;;6.83;;
7316;SDS011;3699;51.462;6.696;2023-10-31T09:29:46;11.23;;;6.60;;
7316;SDS011;3699;51.462;6.696;2023-10-31T09:32:15;8.03;;;6.70;;
7316;SDS011;3699;51.462;6.696;2023-10-31T09:34:42;9.63;;;6.90;;
7316;SDS011;3699;51.462;6.696;2023-10-31T09:37:08;10.13;;;6.60;;
7316;SDS011;3699;51.462;6.696;2023-10-31T09:39:35;11.67;;;6.97;;
7316;SDS011;3699;51.462;6.696;2023-10-31T09:42:02;8.33;;;5.90;;
7316;SDS011;3699;51.462;6.696;2023-10-31T09:44:29;9.30;;;6.67;;
7316;SDS011;3699;51.462;6.696;2023-10-31T09:46:56;9.77;;;7.07;;
7316;SDS011;3699;51.462;6.696;2023-10-31T09:49:24;10.00;;;6.97;;
7316;SDS011;3699;51.462;6.696;2023-10-31T09:51:51;8.87;;;7.23;;
7316;SDS011;3699;51.462;6.696;2023-10-31T09:54:18;9.17;;;6.80;;
7316;SDS011;3699;51.462;6.696;2023-10-31T09:56:45;10.53;;;7.63;;
7316;SDS011;3699;51.462;6.696;2023-10-31T09:59:13;9.90;;;7.53;;
7316;SDS011;3699;51.462;6.696;2023-10-31T10:01:41;11.13;;;7.70;;
7316;SDS011;3699;51.462;6.696;2023-10-31T10:04:08;8.67;;;7.13;;
7316;SDS011;3699;51.462;6.696;2023-10-31T10:06:38;13.97;;;7.07;;
7316;SDS011;3699;51.462;6.696;2023-10-31T10:09:06;11.10;;;7.10;;
7316;SDS011;3699;51.462;6.696;2023-10-31T10:11:33;10.40;;;7.30;;
7316;SDS011;3699;51.462;6.696;2023-10-31T10:14:00;11.50;;;6.80;;
7316;SDS011;3699;51.462;6.696;2023-10-31T10:16:28;9.83;;;6.97;;
7316;SDS011;3699;51.462;6.696;2023-10-31T10:18:56;8.63;;;6.60;;
7316;SDS011;3699;51.462;6.696;2023-10-31T10:21:22;8.97;;;6.83;;
7316;SDS011;3699;51.462;6.696;2023-10-31T10:23:52;9.20;;;7.20;;
7316;SDS011;3699;51.462;6.696;2023-10-31T10:26:19;14.10;;;7.40;;
7316;SDS011;3699;51.462;6.696;2023-10-31T10:28:50;13.13;;;7.07;;
7316;SDS011;3699;51.462;6.696;2023-10-31T10:31:17;8.97;;;6.27;;
7316;SDS011;3699;51.462;6.696;2023-10-31T10:33:45;12.07;;;6.80;;
7316;SDS011;3699;51.462;6.696;2023-10-31T10:36:12;8.47;;;5.90;;
7316;SDS011;3699;51.462;6.696;2023-10-31T10:38:40;10.67;;;6.10;;
7316;SDS011;3699;51.462;6.696;2023-10-31T10:41:12;10.03;;;6.00;;
7316;SDS011;3699;51.462;6.696;2023-10-31T10:43:43;9.40;;;6.20;;
7316;SDS011;3699;51.462;6.696;2023-10-31T10:46:13;10.17;;;6.50;;
7316;SDS011;3699;51.462;6.696;2023-10-31T10:48:43;7.00;;;5.47;;
7316;SDS011;3699;51.462;6.696;2023-10-31T10:51:13;10.13;;;6.37;;
7316;SDS011;3699;51.462;6.696;2023-10-31T10:53:48;10.97;;;6.40;;
7316;SDS011;3699;51.462;6.696;2023-10-31T10:56:19;6.17;;;5.17;;
7316;SDS011;3699;51.462;6.696;2023-10-31T10:58:52;6.73;;;5.07;;
7316;SDS011;3699;51.462;6.696;2023-10-31T11:01:24;6.43;;;4.77;;
7316;SDS011;3699;51.462;6.696;2023-10-31T11:03:52;10.23;;;5.30;;
7316;SDS011;3699;51.462;6.696;2023-10-31T11:06:21;6.87;;;4.40;;
7316;SDS011;3699;51.462;6.696;2023-10-31T11:08:48;7.10;;;5.10;;
7316;SDS011;3699;51.462;6.696;2023-10-31T11:11:19;6.20;;;4.73;;
7316;SDS011;3699;51.462;6.696;2023-10-31T11:13:48;7.57;;;4.90;;
7316;SDS011;3699;51.462;6.696;2023-10-31T11:16:17;6.77;;;5.27;;
7316;SDS011;3699;51.462;6.696;2023-10-31T11:18:50;7.57;;;3.97;;
7316;SDS011;3699;51.462;6.696;2023-10-31T11:21:16;9.03;;;4.53;;
7316;SDS011;3699;51.462;6.696;2023-10-31T11:23:44;9.60;;;4.97;;
7316;SDS011;3699;51.462;6.696;2023-10-31T11:26:10;15.23;;;5.40;;
7316;SDS011;3699;51.462;6.696;2023-10-31T11:28:39;5.13;;;4.10;;
7316;SDS011;3699;51.462;6.696;2023-10-31T11:31:07;7.43;;;3.97;;
7316;SDS011;3699;51.462;6.696;2023-10-31T11:33:34;10.83;;;3.90;;
7316;SDS011;3699;51.462;6.696;2023-10-31T11:36:05;8.50;;;4.67;;
7316;SDS011;3699;51.462;6.696;2023-10-31T11:38:34;6.83;;;3.90;;
7316;SDS011;3699;51.462;6.696;2023-10-31T11:41:02;7.13;;;3.60;;
7316;SDS011;3699;51.462;6.696;2023-10-31T11:43:51;7.43;;;4.33;;
7316;SDS011;3699;51.462;6.696;2023-10-31T11:46:18;10.50;;;3.70;;
7316;SDS011;3699;51.462;6.696;2023-10-31T11:48:46;6.93;;;4.13;;
7316;SDS011;3699;51.462;6.696;2023-10-31T11:51:15;4.53;;;3.27;;
7316;SDS011;3699;51.462;6.696;2023-10-31T11:53:42;3.93;;;3.33;;
7316;SDS011;3699;51.462;6.696;2023-10-31T11:56:10;6.37;;;3.97;;
7316;SDS011;3699;51.462;6.696;2023-10-31T11:58:37;9.20;;;3.80;;
7316;SDS011;3699;51.462;6.696;2023-10-31T12:01:06;8.80;;;3.33;;
7316;SDS011;3699;51.462;6.696;2023-10-31T12:03:37;4.53;;;3.37;;
7316;SDS011;3699;51.462;6.696;2023-10-31T12:06:05;12.27;;;5.43;;
7316;SDS011;3699;51.462;6.696;2023-10-31T12:08:35;3.10;;;2.80;;
7316;SDS011;3699;51.462;6.696;2023-10-31T12:11:06;7.07;;;2.80;;
7316;SDS011;3699;51.462;6.696;2023-10-31T12:13:35;5.53;;;2.83;;
7316;SDS011;3699;51.462;6.696;2023-10-31T12:16:03;5.57;;;2.70;;
7316;SDS011;3699;51.462;6.696;2023-10-31T12:18:33;6.23;;;2.57;;
7316;SDS011;3699;51.462;6.696;2023-10-31T12:21:00;7.23;;;3.07;;
7316;SDS011;3699;51.462;6.696;2023-10-31T12:23:27;6.80;;;3.13;;
7316;SDS011;3699;51.462;6.696;2023-10-31T12:25:54;3.83;;;3.03;;
7316;SDS011;3699;51.462;6.696;2023-10-31T12:28:22;5.67;;;3.80;;
7316;SDS011;3699;51.462;6.696;2023-10-31T12:30:50;22.30;;;20.00;;
7316;SDS011;3699;51.462;6.696;2023-10-31T12:33:19;15.47;;;9.20;;
7316;SDS011;3699;51.462;6.696;2023-10-31T12:35:51;55.33;;;43.87;;
7316;SDS011;3699;51.462;6.696;2023-10-31T12:38:22;100.60;;;77.47;;
7316;SDS011;3699;51.462;6.696;2023-10-31T12:40:49;39.03;;;32.00;;
7316;SDS011;3699;51.462;6.696;2023-10-31T12:43:17;26.27;;;23.43;;
7316;SDS011;3699;51.462;6.696;2023-10-31T12:45:44;9.67;;;7.90;;
7316;SDS011;3699;51.462;6.696;2023-10-31T12:48:10;245.07;;;148.03;;
7316;SDS011;3699;51.462;6.696;2023-10-31T12:50:38;186.20;;;117.60;;
7316;SDS011;3699;51.462;6.696;2023-10-31T12:53:06;193.50;;;127.13;;
7316;SDS011;3699;51.462;6.696;2023-10-31T12:55:37;35.40;;;21.73;;
7316;SDS011;3699;51.462;6.696;2023-10-31T12:58:05;178.70;;;119.67;;
7316;SDS011;3699;51.462;6.696;2023-10-31T13:00:35;124.37;;;90.33;;
7316;SDS011;3699;51.462;6.696;2023-10-31T13:03:04;27.63;;;20.77;;
7316;SDS011;3699;51.462;6.696;2023-10-31T13:05:32;45.97;;;36.53;;
7316;SDS011;3699;51.462;6.696;2023-10-31T13:07:59;34.17;;;26.97;;
7316;SDS011;3699;51.462;6.696;2023-10-31T13:10:30;70.97;;;58.70;;
7316;SDS011;3699;51.462;6.696;2023-10-31T13:12:57;76.33;;;56.40;;
7316;SDS011;3699;51.462;6.696;2023-10-31T13:15:24;88.93;;;61.93;;
7316;SDS011;3699;51.462;6.696;2023-10-31T13:17:51;47.57;;;33.73;;
7316;SDS011;3699;51.462;6.696;2023-10-31T13:20:18;55.50;;;40.37;;
7316;SDS011;3699;51.462;6.696;2023-10-31T13:22:46;71.33;;;51.67;;
7316;SDS011;3699;51.462;6.696;2023-10-31T13:25:13;129.00;;;81.57;;
7316;SDS011;3699;51.462;6.696;2023-10-31T13:27:42;26.17;;;23.30;;
7316;SDS011;3699;51.462;6.696;2023-10-31T13:30:10;40.20;;;35.30;;
7316;SDS011;3699;51.462;6.696;2023-10-31T13:32:38;34.70;;;31.20;;
7316;SDS011;3699;51.462;6.696;2023-10-31T13:35:05;7.17;;;5.43;;
7316;SDS011;3699;51.462;6.696;2023-10-31T13:37:34;33.77;;;30.17;;
7316;SDS011;3699;51.462;6.696;2023-10-31T13:40:01;21.07;;;18.87;;
7316;SDS011;3699;51.462;6.696;2023-10-31T13:42:28;9.73;;;6.90;;
7316;SDS011;3699;51.462;6.696;2023-10-31T13:44:56;36.93;;;28.60;;
7316;SDS011;3699;51.462;6.696;2023-10-31T13:47:22;25.77;;;21.93;;
7316;SDS011;3699;51.462;6.696;2023-10-31T13:49:49;12.63;;;8.43;;
7316;SDS011;3699;51.462;6.696;2023-10-31T13:52:16;37.57;;;30.87;;
7316;SDS011;3699;51.462;6.696;2023-10-31T13:54:42;22.77;;;19.50;;
7316;SDS011;3699;51.462;6.696;2023-10-31T13:57:09;37.20;;;31.53;;
7316;SDS011;3699;51.462;6.696;2023-10-31T13:59:36;10.13;;;9.13;;
7316;SDS011;3699;51.462;6.696;2023-10-31T14:02:04;35.27;;;31.70;;
7316;SDS011;3699;51.462;6.696;2023-10-31T14:04:31;20.87;;;18.73;;
7316;SDS011;3699;51.462;6.696;2023-10-31T14:06:58;68.87;;;57.97;;
7316;SDS011;3699;51.462;6.696;2023-10-31T14:09:25;90.80;;;80.37;;
7316;SDS011;3699;51.462;6.696;2023-10-31T14:11:52;86.40;;;74.00;;
7316;SDS011;3699;51.462;6.696;2023-10-31T14:14:19;71.23;;;52.77;;
7316;SDS011;3699;51.462;6.696;2023-10-31T14:16:46;99.20;;;76.33;;
7316;SDS011;3699;51.462;6.696;2023-10-31T14:19:15;42.20;;;33.23;;
7316;SDS011;3699;51.462;6.696;2023-10-31T14:21:43;51.67;;;41.57;;
7316;SDS011;3699;51.462;6.696;2023-10-31T14:24:09;90.07;;;76.77;;
7316;SDS011;3699;51.462;6.696;2023-10-31T14:26:36;26.40;;;23.60;;
7316;SDS011;3699;51.462;6.696;2023-10-31T14:29:05;11.90;;;9.73;;
7316;SDS011;3699;51.462;6.696;2023-10-31T14:31:32;27.43;;;25.00;;
7316;SDS011;3699;51.462;6.696;2023-10-31T14:34:04;10.33;;;9.30;;
7316;SDS011;3699;51.462;6.696;2023-10-31T14:36:32;17.10;;;15.57;;
7316;SDS011;3699;51.462;6.696;2023-10-31T14:38:59;16.63;;;12.00;;
7316;SDS011;3699;51.462;6.696;2023-10-31T14:41:26;7.83;;;6.90;;
7316;SDS011;3699;51.462;6.696;2023-10-31T14:43:53;11.23;;;10.03;;
7316;SDS011;3699;51.462;6.696;2023-10-31T14:46:20;6.33;;;5.27;;
7316;SDS011;3699;51.462;6.696;2023-10-31T14:48:46;23.53;;;19.27;;
7316;SDS011;3699;51.462;6.696;2023-10-31T14:51:13;16.10;;;13.20;;
7316;SDS011;3699;51.462;6.696;2023-10-31T14:53:42;14.57;;;13.13;;
7316;SDS011;3699;51.462;6.696;2023-10-31T14:56:09;34.37;;;29.87;;
7316;SDS011;3699;51.462;6.696;2023-10-31T14:58:36;34.57;;;25.07;;
7316;SDS011;3699;51.462;6.696;2023-10-31T15:01:03;46.63;;;32.83;;